sensor_id;sensor_type;location;lat;lon;timestamp;P1;durP1;ratioP1;P2;durP2;ratioP2
27275;SDS011;14772;47.398;8.080;2022-10-04T00:00:21;13.03;;;4.27;;
27275;SDS011;14772;47.398;8.080;2022-10-04T00:05:21;12.77;;;4.70;;
27275;SDS011;14772;47.398;8.080;2022-10-04T00:10:21;14.47;;;4.77;;
27275;SDS011;14772;47.398;8.080;2022-10-04T00:15:21;13.33;;;4.50;;
27275;SDS011;14772;47.398;8.080;2022-10-04T00:25:54;13.77;;;4.60;;
27275;SDS011;14772;47.398;8.080;2022-10-04T00:41:52;14.00;;;4.60;;
27275;SDS011;14772;47.398;8.080;2022-10-04T00:46:56;15.40;;;4.20;;
27275;SDS011;14772;47.398;8.080;2022-10-04T00:51:57;12.17;;;4.00;;
27275;SDS011;14772;47.398;8.080;2022-10-04T00:56:59;14.57;;;4.40;;
27275;SDS011;14772;47.398;8.080;2022-10-04T01:02:01;12.50;;;4.23;;
27275;SDS011;14772;47.398;8.080;2022-10-04T01:07:01;13.63;;;4.27;;
27275;SDS011;14772;47.398;8.080;2022-10-04T01:12:02;12.63;;;4.40;;
27275;SDS011;14772;47.398;8.080;2022-10-04T01:17:02;12.53;;;4.50;;
27275;SDS011;14772;47.398;8.080;2022-10-04T01:22:10;11.27;;;4.50;;
27275;SDS011;14772;47.398;8.080;2022-10-04T01:32:27;11.60;;;4.43;;
27275;SDS011;14772;47.398;8.080;2022-10-04T01:37:25;11.40;;;4.23;;
27275;SDS011;14772;47.398;8.080;2022-10-04T01:42:23;12.63;;;4.50;;
27275;SDS011;14772;47.398;8.080;2022-10-04T01:47:25;11.67;;;4.37;;
27275;SDS011;14772;47.398;8.080;2022-10-04T01:52:40;11.50;;;4.37;;
27275;SDS011;14772;47.398;8.080;2022-10-04T01:57:41;13.73;;;4.10;;
27275;SDS011;14772;47.398;8.080;2022-10-04T02:02:44;12.70;;;4.37;;
27275;SDS011;14772;47.398;8.080;2022-10-04T02:07:44;12.20;;;4.20;;
27275;SDS011;14772;47.398;8.080;2022-10-04T02:12:44;13.73;;;4.27;;
27275;SDS011;14772;47.398;8.080;2022-10-04T02:17:44;13.47;;;4.50;;
27275;SDS011;14772;47.398;8.080;2022-10-04T02:22:43;10.63;;;4.10;;
27275;SDS011;14772;47.398;8.080;2022-10-04T02:27:43;12.97;;;4.93;;
27275;SDS011;14772;47.398;8.080;2022-10-04T02:32:41;13.03;;;4.50;;
27275;SDS011;14772;47.398;8.080;2022-10-04T02:37:39;13.93;;;4.03;;
27275;SDS011;14772;47.398;8.080;2022-10-04T02:42:37;12.23;;;4.17;;
27275;SDS011;14772;47.398;8.080;2022-10-04T02:47:40;11.60;;;4.50;;
27275;SDS011;14772;47.398;8.080;2022-10-04T02:52:42;14.93;;;4.53;;
27275;SDS011;14772;47.398;8.080;2022-10-04T02:57:42;18.00;;;4.40;;
27275;SDS011;14772;47.398;8.080;2022-10-04T03:02:40;13.27;;;3.70;;
27275;SDS011;14772;47.398;8.080;2022-10-04T03:07:40;10.93;;;3.97;;
27275;SDS011;14772;47.398;8.080;2022-10-04T03:12:38;13.00;;;4.20;;
27275;SDS011;14772;47.398;8.080;2022-10-04T03:17:35;14.07;;;4.37;;
27275;SDS011;14772;47.398;8.080;2022-10-04T03:22:34;14.17;;;4.13;;
27275;SDS011;14772;47.398;8.080;2022-10-04T03:27:32;11.67;;;4.17;;
27275;SDS011;14772;47.398;8.080;2022-10-04T03:32:31;13.57;;;4.20;;
27275;SDS011;14772;47.398;8.080;2022-10-04T03:37:29;11.10;;;4.23;;
27275;SDS011;14772;47.398;8.080;2022-10-04T03:42:30;13.83;;;4.40;;
27275;SDS011;14772;47.398;8.080;2022-10-04T03:47:36;12.77;;;3.90;;
27275;SDS011;14772;47.398;8.080;2022-10-04T03:52:36;12.07;;;4.33;;
27275;SDS011;14772;47.398;8.080;2022-10-04T03:57:33;13.33;;;4.40;;
27275;SDS011;14772;47.398;8.080;2022-10-04T04:02:33;12.57;;;4.30;;
27275;SDS011;14772;47.398;8.080;2022-10-04T04:07:35;13.77;;;4.67;;
27275;SDS011;14772;47.398;8.080;2022-10-04T04:12:36;13.17;;;4.87;;
27275;SDS011;14772;47.398;8.080;2022-10-04T04:17:37;10.13;;;4.00;;
27275;SDS011;14772;47.398;8.080;2022-10-04T04:22:36;13.90;;;4.50;;
27275;SDS011;14772;47.398;8.080;2022-10-04T04:27:34;13.03;;;4.70;;
27275;SDS011;14772;47.398;8.080;2022-10-04T04:32:35;13.53;;;4.97;;
27275;SDS011;14772;47.398;8.080;2022-10-04T04:37:35;13.20;;;4.67;;
27275;SDS011;14772;47.398;8.080;2022-10-04T04:42:33;10.80;;;4.00;;
27275;SDS011;14772;47.398;8.080;2022-10-04T04:47:31;11.80;;;4.20;;
27275;SDS011;14772;47.398;8.080;2022-10-04T04:52:32;12.07;;;3.80;;
27275;SDS011;14772;47.398;8.080;2022-10-04T04:57:31;11.80;;;4.23;;
27275;SDS011;14772;47.398;8.080;2022-10-04T05:02:29;13.20;;;4.50;;
27275;SDS011;14772;47.398;8.080;2022-10-04T05:07:28;14.33;;;4.50;;
27275;SDS011;14772;47.398;8.080;2022-10-04T05:12:25;13.70;;;5.10;;
27275;SDS011;14772;47.398;8.080;2022-10-04T05:17:29;12.37;;;4.23;;
27275;SDS011;14772;47.398;8.080;2022-10-04T05:22:28;12.33;;;4.50;;
27275;SDS011;14772;47.398;8.080;2022-10-04T05:27:28;13.43;;;4.80;;
27275;SDS011;14772;47.398;8.080;2022-10-04T05:32:31;12.20;;;4.73;;
27275;SDS011;14772;47.398;8.080;2022-10-04T05:37:34;12.93;;;4.77;;
27275;SDS011;14772;47.398;8.080;2022-10-04T05:42:39;15.67;;;5.27;;
27275;SDS011;14772;47.398;8.080;2022-10-04T05:47:38;13.20;;;5.37;;
27275;SDS011;14772;47.398;8.080;2022-10-04T05:52:37;15.50;;;5.17;;
27275;SDS011;14772;47.398;8.080;2022-10-04T05:57:37;12.90;;;5.60;;
27275;SDS011;14772;47.398;8.080;2022-10-04T06:02:54;13.30;;;5.63;;
27275;SDS011;14772;47.398;8.080;2022-10-04T06:08:15;14.20;;;5.40;;
27275;SDS011;14772;47.398;8.080;2022-10-04T06:13:21;14.00;;;5.87;;
27275;SDS011;14772;47.398;8.080;2022-10-04T06:18:42;14.83;;;5.97;;
27275;SDS011;14772;47.398;8.080;2022-10-04T06:23:59;14.13;;;6.43;;
27275;SDS011;14772;47.398;8.080;2022-10-04T06:29:00;16.30;;;5.80;;
27275;SDS011;14772;47.398;8.080;2022-10-04T06:34:06;14.90;;;6.20;;
27275;SDS011;14772;47.398;8.080;2022-10-04T06:39:12;13.30;;;5.83;;
27275;SDS011;14772;47.398;8.080;2022-10-04T06:44:25;15.20;;;6.17;;
27275;SDS011;14772;47.398;8.080;2022-10-04T06:49:33;15.43;;;6.20;;
27275;SDS011;14772;47.398;8.080;2022-10-04T06:54:41;13.00;;;5.60;;
27275;SDS011;14772;47.398;8.080;2022-10-04T06:59:56;16.73;;;6.43;;
27275;SDS011;14772;47.398;8.080;2022-10-04T07:05:01;14.47;;;6.50;;
27275;SDS011;14772;47.398;8.080;2022-10-04T07:10:02;16.17;;;6.30;;
27275;SDS011;14772;47.398;8.080;2022-10-04T07:15:20;14.37;;;6.33;;
27275;SDS011;14772;47.398;8.080;2022-10-04T07:20:20;14.30;;;6.43;;
27275;SDS011;14772;47.398;8.080;2022-10-04T07:25:21;17.90;;;6.10;;
27275;SDS011;14772;47.398;8.080;2022-10-04T07:30:21;16.30;;;6.43;;
27275;SDS011;14772;47.398;8.080;2022-10-04T07:35:25;17.50;;;6.40;;
27275;SDS011;14772;47.398;8.080;2022-10-04T07:40:21;15.57;;;6.53;;
27275;SDS011;14772;47.398;8.080;2022-10-04T07:45:23;14.57;;;6.43;;
27275;SDS011;14772;47.398;8.080;2022-10-04T07:50:23;15.03;;;6.50;;
27275;SDS011;14772;47.398;8.080;2022-10-04T07:55:26;15.20;;;6.30;;
27275;SDS011;14772;47.398;8.080;2022-10-04T08:00:27;14.57;;;6.40;;
27275;SDS011;14772;47.398;8.080;2022-10-04T08:05:28;14.77;;;6.70;;
27275;SDS011;14772;47.398;8.080;2022-10-04T08:10:31;15.37;;;6.87;;
27275;SDS011;14772;47.398;8.080;2022-10-04T08:15:35;15.40;;;6.80;;
27275;SDS011;14772;47.398;8.080;2022-10-04T08:20:34;16.07;;;7.00;;
27275;SDS011;14772;47.398;8.080;2022-10-04T08:25:38;17.93;;;7.47;;
27275;SDS011;14772;47.398;8.080;2022-10-04T08:30:41;18.90;;;7.90;;
27275;SDS011;14772;47.398;8.080;2022-10-04T08:35:48;18.83;;;8.07;;
27275;SDS011;14772;47.398;8.080;2022-10-04T08:46:37;18.13;;;8.40;;
27275;SDS011;14772;47.398;8.080;2022-10-04T08:52:30;17.13;;;8.13;;
27275;SDS011;14772;47.398;8.080;2022-10-04T08:57:57;19.80;;;7.90;;
27275;SDS011;14772;47.398;8.080;2022-10-04T09:03:16;18.33;;;8.03;;
27275;SDS011;14772;47.398;8.080;2022-10-04T09:14:11;19.87;;;8.03;;
27275;SDS011;14772;47.398;8.080;2022-10-04T09:19:28;16.70;;;7.80;;
27275;SDS011;14772;47.398;8.080;2022-10-04T09:30:03;17.00;;;7.60;;
27275;SDS011;14772;47.398;8.080;2022-10-04T09:35:14;18.40;;;8.40;;
27275;SDS011;14772;47.398;8.080;2022-10-04T09:40:30;18.23;;;7.80;;
27275;SDS011;14772;47.398;8.080;2022-10-04T09:45:37;16.73;;;7.87;;
27275;SDS011;14772;47.398;8.080;2022-10-04T09:51:18;16.60;;;7.73;;
27275;SDS011;14772;47.398;8.080;2022-10-04T09:57:06;19.57;;;8.13;;
27275;SDS011;14772;47.398;8.080;2022-10-04T10:02:15;15.60;;;7.13;;
27275;SDS011;14772;47.398;8.080;2022-10-04T10:07:30;15.53;;;7.53;;
27275;SDS011;14772;47.398;8.080;2022-10-04T10:12:39;16.43;;;7.70;;
27275;SDS011;14772;47.398;8.080;2022-10-04T10:17:53;15.83;;;7.40;;
27275;SDS011;14772;47.398;8.080;2022-10-04T10:23:04;16.03;;;7.50;;
27275;SDS011;14772;47.398;8.080;2022-10-04T10:28:14;16.80;;;7.83;;
27275;SDS011;14772;47.398;8.080;2022-10-04T10:33:23;14.47;;;7.73;;
27275;SDS011;14772;47.398;8.080;2022-10-04T10:38:46;15.13;;;7.37;;
27275;SDS011;14772;47.398;8.080;2022-10-04T10:44:08;15.57;;;7.43;;
27275;SDS011;14772;47.398;8.080;2022-10-04T10:49:36;18.57;;;7.77;;
27275;SDS011;14772;47.398;8.080;2022-10-04T10:54:55;16.07;;;7.30;;
27275;SDS011;14772;47.398;8.080;2022-10-04T11:00:20;17.93;;;7.20;;
27275;SDS011;14772;47.398;8.080;2022-10-04T11:05:29;19.57;;;7.10;;
27275;SDS011;14772;47.398;8.080;2022-10-04T11:27:20;14.23;;;6.10;;
27275;SDS011;14772;47.398;8.080;2022-10-04T11:43:25;14.07;;;5.53;;
27275;SDS011;14772;47.398;8.080;2022-10-04T11:48:38;15.50;;;5.90;;
27275;SDS011;14772;47.398;8.080;2022-10-04T11:59:11;13.10;;;4.60;;
27275;SDS011;14772;47.398;8.080;2022-10-04T12:04:27;13.07;;;4.63;;
27275;SDS011;14772;47.398;8.080;2022-10-04T12:09:42;11.23;;;4.77;;
27275;SDS011;14772;47.398;8.080;2022-10-04T12:14:55;14.23;;;5.10;;
27275;SDS011;14772;47.398;8.080;2022-10-04T12:20:32;11.93;;;4.80;;
27275;SDS011;14772;47.398;8.080;2022-10-04T12:26:07;10.90;;;4.10;;
27275;SDS011;14772;47.398;8.080;2022-10-04T12:31:15;12.30;;;3.90;;
27275;SDS011;14772;47.398;8.080;2022-10-04T12:36:22;11.47;;;4.30;;
27275;SDS011;14772;47.398;8.080;2022-10-04T12:41:27;11.70;;;4.33;;
27275;SDS011;14772;47.398;8.080;2022-10-04T12:46:31;12.13;;;4.03;;
27275;SDS011;14772;47.398;8.080;2022-10-04T12:51:34;9.40;;;3.60;;
27275;SDS011;14772;47.398;8.080;2022-10-04T12:56:38;15.17;;;4.10;;
27275;SDS011;14772;47.398;8.080;2022-10-04T13:01:46;9.83;;;3.13;;
27275;SDS011;14772;47.398;8.080;2022-10-04T13:06:52;9.33;;;3.13;;
27275;SDS011;14772;47.398;8.080;2022-10-04T13:11:58;9.97;;;3.47;;
27275;SDS011;14772;47.398;8.080;2022-10-04T13:17:03;12.10;;;3.90;;
27275;SDS011;14772;47.398;8.080;2022-10-04T13:22:14;9.97;;;3.87;;
27275;SDS011;14772;47.398;8.080;2022-10-04T13:27:32;8.97;;;3.17;;
27275;SDS011;14772;47.398;8.080;2022-10-04T13:32:38;10.23;;;3.37;;
27275;SDS011;14772;47.398;8.080;2022-10-04T13:37:39;8.27;;;3.10;;
27275;SDS011;14772;47.398;8.080;2022-10-04T13:42:43;8.63;;;3.17;;
27275;SDS011;14772;47.398;8.080;2022-10-04T13:47:55;25.30;;;4.40;;
27275;SDS011;14772;47.398;8.080;2022-10-04T13:53:02;11.73;;;3.13;;
27275;SDS011;14772;47.398;8.080;2022-10-04T13:58:10;7.77;;;3.20;;
27275;SDS011;14772;47.398;8.080;2022-10-04T14:08:54;8.87;;;2.90;;
27275;SDS011;14772;47.398;8.080;2022-10-04T14:25:48;7.17;;;2.90;;
27275;SDS011;14772;47.398;8.080;2022-10-04T14:30:59;8.47;;;3.20;;
27275;SDS011;14772;47.398;8.080;2022-10-04T14:42:11;8.77;;;2.80;;
27275;SDS011;14772;47.398;8.080;2022-10-04T14:47:18;7.97;;;3.10;;
27275;SDS011;14772;47.398;8.080;2022-10-04T14:52:36;9.07;;;2.97;;
27275;SDS011;14772;47.398;8.080;2022-10-04T14:57:46;9.73;;;3.00;;
27275;SDS011;14772;47.398;8.080;2022-10-04T15:03:04;8.20;;;2.93;;
27275;SDS011;14772;47.398;8.080;2022-10-04T15:08:24;8.70;;;3.30;;
27275;SDS011;14772;47.398;8.080;2022-10-04T15:13:28;10.47;;;3.70;;
27275;SDS011;14772;47.398;8.080;2022-10-04T15:18:31;11.00;;;3.53;;
27275;SDS011;14772;47.398;8.080;2022-10-04T15:23:34;10.40;;;4.10;;
27275;SDS011;14772;47.398;8.080;2022-10-04T15:28:40;10.23;;;3.87;;
27275;SDS011;14772;47.398;8.080;2022-10-04T15:33:54;10.20;;;4.00;;
27275;SDS011;14772;47.398;8.080;2022-10-04T15:38:56;10.33;;;3.80;;
27275;SDS011;14772;47.398;8.080;2022-10-04T15:44:09;11.20;;;4.17;;
27275;SDS011;14772;47.398;8.080;2022-10-04T15:54:39;10.10;;;4.20;;
27275;SDS011;14772;47.398;8.080;2022-10-04T15:59:44;11.20;;;4.27;;
27275;SDS011;14772;47.398;8.080;2022-10-04T16:04:46;11.53;;;4.30;;
27275;SDS011;14772;47.398;8.080;2022-10-04T16:10:15;12.10;;;4.60;;
27275;SDS011;14772;47.398;8.080;2022-10-04T16:15:16;14.63;;;4.90;;
27275;SDS011;14772;47.398;8.080;2022-10-04T16:20:20;11.33;;;4.30;;
27275;SDS011;14772;47.398;8.080;2022-10-04T16:25:35;12.20;;;4.43;;
27275;SDS011;14772;47.398;8.080;2022-10-04T16:30:34;11.13;;;4.60;;
27275;SDS011;14772;47.398;8.080;2022-10-04T16:35:36;11.23;;;4.57;;
27275;SDS011;14772;47.398;8.080;2022-10-04T16:40:36;12.20;;;4.80;;
27275;SDS011;14772;47.398;8.080;2022-10-04T16:45:43;10.60;;;4.30;;
27275;SDS011;14772;47.398;8.080;2022-10-04T16:57:08;13.53;;;4.63;;
27275;SDS011;14772;47.398;8.080;2022-10-04T17:02:04;11.87;;;4.67;;
27275;SDS011;14772;47.398;8.080;2022-10-04T17:07:29;14.20;;;4.97;;
27275;SDS011;14772;47.398;8.080;2022-10-04T17:12:32;12.88;;;5.42;;
27275;SDS011;14772;47.398;8.080;2022-10-04T17:17:36;12.50;;;4.90;;
27275;SDS011;14772;47.398;8.080;2022-10-04T17:22:42;11.90;;;5.10;;
27275;SDS011;14772;47.398;8.080;2022-10-04T17:27:43;16.87;;;5.40;;
27275;SDS011;14772;47.398;8.080;2022-10-04T17:38:34;12.87;;;5.20;;
27275;SDS011;14772;47.398;8.080;2022-10-04T17:43:36;13.93;;;5.53;;
27275;SDS011;14772;47.398;8.080;2022-10-04T17:53:46;14.90;;;5.87;;
27275;SDS011;14772;47.398;8.080;2022-10-04T17:58:46;14.70;;;6.03;;
27275;SDS011;14772;47.398;8.080;2022-10-04T18:03:56;15.50;;;6.03;;
27275;SDS011;14772;47.398;8.080;2022-10-04T18:08:57;16.37;;;6.00;;
27275;SDS011;14772;47.398;8.080;2022-10-04T18:13:59;14.03;;;6.00;;
27275;SDS011;14772;47.398;8.080;2022-10-04T18:19:07;13.57;;;5.97;;
27275;SDS011;14772;47.398;8.080;2022-10-04T18:24:18;12.60;;;5.60;;
27275;SDS011;14772;47.398;8.080;2022-10-04T18:29:16;13.77;;;5.73;;
27275;SDS011;14772;47.398;8.080;2022-10-04T18:34:18;13.97;;;6.10;;
27275;SDS011;14772;47.398;8.080;2022-10-04T18:39:23;13.53;;;5.87;;
27275;SDS011;14772;47.398;8.080;2022-10-04T18:44:22;14.50;;;5.70;;
27275;SDS011;14772;47.398;8.080;2022-10-04T18:49:23;14.67;;;6.23;;
27275;SDS011;14772;47.398;8.080;2022-10-04T18:54:25;16.47;;;7.27;;
27275;SDS011;14772;47.398;8.080;2022-10-04T18:59:30;14.13;;;7.40;;
27275;SDS011;14772;47.398;8.080;2022-10-04T19:04:36;16.73;;;7.27;;
27275;SDS011;14772;47.398;8.080;2022-10-04T19:09:44;17.33;;;7.30;;
27275;SDS011;14772;47.398;8.080;2022-10-04T19:14:50;17.07;;;8.37;;
27275;SDS011;14772;47.398;8.080;2022-10-04T19:19:52;15.00;;;7.47;;
27275;SDS011;14772;47.398;8.080;2022-10-04T19:24:59;16.73;;;8.07;;
27275;SDS011;14772;47.398;8.080;2022-10-04T19:30:20;13.83;;;6.90;;
27275;SDS011;14772;47.398;8.080;2022-10-04T19:35:33;14.30;;;7.00;;
27275;SDS011;14772;47.398;8.080;2022-10-04T19:40:43;15.60;;;7.67;;
27275;SDS011;14772;47.398;8.080;2022-10-04T19:45:45;14.27;;;7.13;;
27275;SDS011;14772;47.398;8.080;2022-10-04T19:50:46;19.60;;;7.23;;
27275;SDS011;14772;47.398;8.080;2022-10-04T19:55:48;15.97;;;6.40;;
27275;SDS011;14772;47.398;8.080;2022-10-04T20:00:49;14.50;;;6.43;;
27275;SDS011;14772;47.398;8.080;2022-10-04T20:05:47;15.83;;;6.67;;
27275;SDS011;14772;47.398;8.080;2022-10-04T20:10:45;14.97;;;6.10;;
27275;SDS011;14772;47.398;8.080;2022-10-04T20:15:44;13.70;;;6.40;;
27275;SDS011;14772;47.398;8.080;2022-10-04T20:26:00;14.87;;;6.40;;
27275;SDS011;14772;47.398;8.080;2022-10-04T20:30:59;15.00;;;6.07;;
27275;SDS011;14772;47.398;8.080;2022-10-04T20:35:57;13.03;;;6.07;;
27275;SDS011;14772;47.398;8.080;2022-10-04T20:40:55;13.37;;;6.57;;
27275;SDS011;14772;47.398;8.080;2022-10-04T20:45:52;16.73;;;6.10;;
27275;SDS011;14772;47.398;8.080;2022-10-04T20:50:50;14.63;;;6.27;;
27275;SDS011;14772;47.398;8.080;2022-10-04T20:55:47;16.37;;;6.30;;
27275;SDS011;14772;47.398;8.080;2022-10-04T21:00:49;12.37;;;5.90;;
27275;SDS011;14772;47.398;8.080;2022-10-04T21:06:03;16.53;;;6.40;;
27275;SDS011;14772;47.398;8.080;2022-10-04T21:11:06;16.37;;;6.37;;
27275;SDS011;14772;47.398;8.080;2022-10-04T21:16:09;14.70;;;6.63;;
27275;SDS011;14772;47.398;8.080;2022-10-04T21:21:06;16.80;;;6.80;;
27275;SDS011;14772;47.398;8.080;2022-10-04T21:26:19;14.50;;;6.50;;
27275;SDS011;14772;47.398;8.080;2022-10-04T21:31:17;17.43;;;6.93;;
27275;SDS011;14772;47.398;8.080;2022-10-04T21:36:14;13.83;;;7.00;;
27275;SDS011;14772;47.398;8.080;2022-10-04T21:41:12;15.20;;;6.60;;
27275;SDS011;14772;47.398;8.080;2022-10-04T21:46:09;16.73;;;6.30;;
27275;SDS011;14772;47.398;8.080;2022-10-04T21:51:06;16.37;;;6.60;;
27275;SDS011;14772;47.398;8.080;2022-10-04T21:56:03;13.33;;;6.80;;
27275;SDS011;14772;47.398;8.080;2022-10-04T22:01:01;13.37;;;6.43;;
27275;SDS011;14772;47.398;8.080;2022-10-04T22:05:58;15.53;;;6.53;;
27275;SDS011;14772;47.398;8.080;2022-10-04T22:10:55;14.00;;;6.90;;
27275;SDS011;14772;47.398;8.080;2022-10-04T22:15:53;15.17;;;7.00;;
27275;SDS011;14772;47.398;8.080;2022-10-04T22:20:50;13.53;;;6.73;;
27275;SDS011;14772;47.398;8.080;2022-10-04T22:25:48;15.10;;;6.83;;
27275;SDS011;14772;47.398;8.080;2022-10-04T22:30:45;12.50;;;6.43;;
27275;SDS011;14772;47.398;8.080;2022-10-04T22:35:42;13.07;;;6.17;;
27275;SDS011;14772;47.398;8.080;2022-10-04T22:40:39;15.63;;;6.40;;
27275;SDS011;14772;47.398;8.080;2022-10-04T22:45:37;13.10;;;6.10;;
27275;SDS011;14772;47.398;8.080;2022-10-04T22:50:34;14.67;;;6.63;;
27275;SDS011;14772;47.398;8.080;2022-10-04T22:55:32;16.23;;;6.47;;
27275;SDS011;14772;47.398;8.080;2022-10-04T23:00:29;15.47;;;6.60;;
27275;SDS011;14772;47.398;8.080;2022-10-04T23:05:27;13.17;;;6.23;;
27275;SDS011;14772;47.398;8.080;2022-10-04T23:10:24;16.87;;;6.73;;
27275;SDS011;14772;47.398;8.080;2022-10-04T23:15:21;15.50;;;6.63;;
27275;SDS011;14772;47.398;8.080;2022-10-04T23:20:18;13.30;;;6.17;;
27275;SDS011;14772;47.398;8.080;2022-10-04T23:25:17;18.57;;;7.10;;
27275;SDS011;14772;47.398;8.080;2022-10-04T23:30:16;16.03;;;6.67;;
27275;SDS011;14772;47.398;8.080;2022-10-04T23:35:16;15.73;;;6.97;;
27275;SDS011;14772;47.398;8.080;2022-10-04T23:40:16;14.47;;;7.30;;
27275;SDS011;14772;47.398;8.080;2022-10-04T23:45:16;15.77;;;7.10;;
27275;SDS011;14772;47.398;8.080;2022-10-04T23:50:19;14.23;;;7.20;;
27275;SDS011;14772;47.398;8.080;2022-10-04T23:55:20;15.57;;;7.70;;
